createdAt,value
2022-10-23T00:02:37.831Z,21.87
2022-10-23T00:05:41.410Z,24.20
2022-10-23T00:08:43.556Z,26.23
2022-10-23T00:11:48.034Z,23.62
2022-10-23T00:14:50.142Z,25.60
2022-10-23T00:17:52.458Z,27.17
2022-10-23T00:20:54.550Z,22.15
2022-10-23T00:23:56.959Z,25.10
2022-10-23T00:26:59.068Z,22.92
2022-10-23T00:30:03.408Z,27.30
2022-10-23T00:33:05.858Z,21.40
2022-10-23T00:36:11.108Z,25.70
2022-10-23T00:39:13.511Z,23.90
2022-10-23T00:42:21.377Z,22.85
2022-10-23T00:45:31.642Z,22.90
2022-10-23T00:48:34.043Z,23.25
2022-10-23T00:51:40.367Z,25.98
2022-10-23T00:54:43.609Z,22.73
2022-10-23T00:57:48.459Z,24.85
2022-10-23T01:00:54.781Z,24.10
2022-10-23T01:03:57.535Z,21.95
2022-10-23T01:07:20.540Z,27.30
2022-10-23T01:10:34.818Z,27.83
2022-10-23T01:14:08.579Z,23.70
2022-10-23T01:17:43.704Z,23.62
2022-10-23T01:20:57.299Z,24.35
2022-10-23T01:24:09.017Z,26.10
2022-10-23T01:27:17.156Z,23.87
2022-10-23T01:30:19.410Z,23.27
2022-10-23T01:33:33.930Z,26.80
2022-10-23T01:36:39.634Z,24.98
2022-10-23T01:39:49.765Z,24.45
2022-10-23T01:42:59.515Z,23.60
2022-10-23T01:46:07.200Z,25.93
2022-10-23T01:49:14.094Z,26.67
2022-10-23T01:52:18.187Z,24.33
2022-10-23T01:55:22.282Z,23.35
2022-10-23T01:58:26.429Z,22.75
2022-10-23T02:01:31.701Z,24.98
2022-10-23T02:04:38.292Z,25.98
2022-10-23T02:07:40.958Z,26.17
2022-10-23T02:11:04.242Z,22.25
2022-10-23T02:14:17.685Z,24.17
2022-10-23T02:17:38.633Z,22.85
2022-10-23T02:20:45.646Z,23.92
2022-10-23T02:24:01.198Z,24.67
2022-10-23T02:27:12.912Z,23.23
2022-10-23T02:30:19.117Z,23.35
2022-10-23T02:33:22.897Z,22.45
2022-10-23T02:36:25.253Z,23.80
2022-10-23T02:39:28.166Z,25.02
2022-10-23T02:42:39.095Z,24.95
2022-10-23T02:45:57.262Z,22.60
2022-10-23T02:49:41.984Z,24.27
2022-10-23T02:53:06.355Z,22.87
2022-10-23T02:56:18.449Z,24.23
2022-10-23T02:59:28.435Z,23.23
2022-10-23T03:02:37.883Z,25.25
2022-10-23T03:05:42.097Z,24.30
2022-10-23T03:08:49.536Z,25.62
2022-10-23T03:11:53.576Z,25.45
2022-10-23T03:14:55.977Z,23.02
2022-10-23T03:17:58.077Z,23.85
2022-10-23T03:21:00.444Z,24.58
2022-10-23T03:24:03.207Z,26.85
2022-10-23T03:27:06.515Z,27.75
2022-10-23T03:30:09.381Z,26.37
2022-10-23T03:33:13.068Z,23.98
2022-10-23T03:36:15.113Z,26.60
2022-10-23T03:39:18.607Z,24.00
2022-10-23T03:42:20.777Z,23.62
2022-10-23T03:45:23.186Z,24.55
2022-10-23T03:48:25.322Z,23.58
2022-10-23T03:51:31.766Z,24.17
2022-10-23T03:54:34.574Z,24.98
2022-10-23T03:57:37.057Z,28.45
2022-10-23T04:00:39.407Z,26.08
2022-10-23T04:03:43.296Z,25.12
2022-10-23T04:06:45.577Z,26.62
2022-10-23T04:09:48.146Z,25.45
2022-10-23T04:12:50.544Z,26.08
2022-10-23T04:15:53.616Z,25.48
2022-10-23T04:18:55.774Z,26.50
2022-10-23T04:21:58.309Z,24.35
2022-10-23T04:25:00.388Z,27.77
2022-10-23T04:28:03.948Z,23.38
2022-10-23T04:31:08.019Z,22.05
2022-10-23T04:34:10.358Z,24.50
2022-10-23T04:37:12.660Z,22.67
2022-10-23T04:40:15.181Z,23.65
2022-10-23T04:43:17.316Z,23.25
2022-10-23T04:46:21.746Z,24.15
2022-10-23T04:49:24.190Z,22.70
2022-10-23T04:52:31.369Z,22.80
2022-10-23T04:55:34.596Z,23.20
2022-10-23T04:58:39.330Z,24.65
2022-10-23T05:01:41.506Z,25.73
2022-10-23T05:04:44.562Z,24.27
2022-10-23T05:07:50.976Z,24.75
2022-10-23T05:10:53.750Z,27.35
2022-10-23T05:13:55.889Z,27.92
2022-10-23T05:17:03.039Z,25.40
2022-10-23T05:20:09.649Z,26.10
2022-10-23T05:23:18.121Z,26.95
2022-10-23T05:26:25.484Z,23.92
2022-10-23T05:29:28.073Z,28.95
2022-10-23T05:32:32.189Z,26.52
2022-10-23T05:35:36.356Z,28.62
2022-10-23T05:38:38.517Z,28.33
2022-10-23T05:41:44.600Z,24.73
2022-10-23T05:44:46.814Z,38.10
2022-10-23T05:47:49.404Z,23.83
2022-10-23T05:50:51.887Z,25.30
2022-10-23T05:53:55.053Z,30.55
2022-10-23T05:56:57.472Z,26.60
2022-10-23T06:00:02.293Z,27.37
2022-10-23T06:03:15.400Z,27.65
2022-10-23T06:06:18.110Z,28.65
2022-10-23T06:09:20.522Z,25.12
2022-10-23T06:12:23.470Z,23.73
2022-10-23T06:15:26.071Z,28.38
2022-10-23T06:18:29.374Z,29.65
2022-10-23T06:21:36.625Z,27.67
2022-10-23T06:24:39.258Z,25.52
2022-10-23T06:27:43.395Z,27.80
2022-10-23T06:30:45.778Z,27.37
2022-10-23T06:33:47.877Z,27.62
2022-10-23T06:36:50.258Z,27.95
2022-10-23T06:39:54.702Z,25.73
2022-10-23T06:42:57.276Z,27.55
2022-10-23T06:46:02.703Z,28.27
2022-10-23T06:49:09.500Z,24.60
2022-10-23T06:52:18.514Z,26.33
2022-10-23T06:55:35.612Z,26.85
2022-10-23T06:58:39.002Z,27.00
2022-10-23T07:01:42.503Z,26.48
2022-10-23T07:04:45.042Z,26.45
2022-10-23T07:07:47.932Z,25.30
2022-10-23T07:10:50.287Z,25.33
2022-10-23T07:13:53.742Z,25.17
2022-10-23T07:16:56.150Z,25.02
2022-10-23T07:19:59.832Z,27.37
2022-10-23T07:23:02.084Z,25.92
2022-10-23T07:26:15.157Z,27.87
2022-10-23T07:29:17.464Z,27.08
2022-10-23T07:32:19.923Z,25.65
2022-10-23T07:35:24.857Z,25.42
2022-10-23T07:38:27.990Z,25.17
2022-10-23T07:41:30.221Z,24.58
2022-10-23T07:44:32.632Z,24.77
2022-10-23T07:47:34.889Z,25.50
2022-10-23T07:50:38.454Z,24.85
2022-10-23T07:53:41.724Z,22.65
2022-10-23T07:56:44.611Z,22.02
2022-10-23T07:59:47.266Z,20.48
2022-10-23T08:02:50.453Z,20.27
2022-10-23T08:05:54.322Z,21.00
2022-10-23T08:08:58.403Z,20.52
2022-10-23T08:12:02.511Z,18.50
2022-10-23T08:15:05.144Z,17.65
2022-10-23T08:18:08.262Z,17.48
2022-10-23T08:21:12.109Z,16.98
2022-10-23T08:24:14.670Z,15.20
2022-10-23T08:27:17.224Z,16.35
2022-10-23T08:30:19.904Z,16.52
2022-10-23T08:33:22.919Z,17.30
2022-10-23T08:36:27.910Z,14.52
2022-10-23T08:39:30.573Z,12.37
2022-10-23T08:42:38.795Z,13.50
2022-10-23T08:45:47.618Z,13.05
2022-10-23T08:49:02.426Z,12.45
2022-10-23T08:52:14.814Z,12.23
2022-10-23T08:55:27.076Z,13.05
2022-10-23T08:58:54.929Z,12.75
2022-10-23T09:02:22.277Z,12.45
2022-10-23T09:05:34.576Z,12.68
2022-10-23T09:08:52.247Z,12.80
2022-10-23T09:11:54.255Z,12.82
2022-10-23T09:15:22.846Z,13.95
2022-10-23T09:18:24.925Z,14.10
2022-10-23T09:21:30.444Z,13.40
2022-10-23T09:24:33.628Z,12.65
2022-10-23T09:27:36.216Z,12.35
2022-10-23T09:30:41.043Z,12.37
2022-10-23T09:33:58.062Z,12.23
2022-10-23T09:37:01.745Z,13.25
2022-10-23T09:40:34.001Z,12.45
2022-10-23T09:43:36.167Z,12.73
2022-10-23T09:46:39.803Z,14.15
2022-10-23T09:49:48.640Z,12.30
2022-10-23T09:52:52.839Z,11.07
2022-10-23T09:55:57.002Z,13.73
2022-10-23T09:59:02.836Z,10.93
2022-10-23T10:02:23.627Z,10.63
2022-10-23T10:05:33.515Z,9.90
2022-10-23T10:08:50.174Z,10.57
2022-10-23T10:11:59.208Z,10.52
2022-10-23T10:15:19.857Z,12.18
2022-10-23T10:18:30.985Z,9.68
2022-10-23T10:21:46.898Z,11.40
2022-10-23T10:25:12.512Z,9.95
2022-10-23T10:28:29.284Z,11.07
2022-10-23T10:31:50.573Z,11.18
2022-10-23T10:35:13.080Z,12.30
2022-10-23T10:38:36.207Z,12.70
2022-10-23T10:42:10.953Z,15.38
2022-10-23T10:45:26.968Z,16.73
2022-10-23T10:48:52.409Z,29.65
2022-10-23T10:52:25.526Z,35.13
2022-10-23T10:55:42.793Z,35.08
2022-10-23T10:59:12.743Z,35.30
2022-10-23T11:02:48.080Z,40.08
2022-10-23T11:05:53.490Z,40.03
2022-10-23T11:09:04.018Z,39.20
2022-10-23T11:12:26.145Z,36.88
2022-10-23T11:15:31.134Z,38.28
2022-10-23T11:18:35.001Z,35.58
2022-10-23T11:21:44.202Z,33.03
2022-10-23T11:25:15.638Z,34.03
2022-10-23T11:28:43.684Z,31.50
2022-10-23T11:31:54.248Z,28.58
2022-10-23T11:35:30.664Z,27.10
2022-10-23T11:38:38.959Z,22.95
2022-10-23T11:41:49.911Z,19.48
2022-10-23T11:44:52.268Z,20.60
2022-10-23T11:48:03.707Z,18.12
2022-10-23T11:51:25.915Z,16.92
2022-10-23T11:54:28.028Z,16.45
2022-10-23T12:00:38.458Z,14.27
2022-10-23T12:03:51.091Z,15.25
2022-10-23T12:07:00.501Z,15.15
2022-10-23T12:10:21.726Z,14.23
2022-10-23T12:13:45.386Z,15.55
2022-10-23T12:16:47.727Z,15.38
2022-10-23T12:20:02.295Z,16.45
2022-10-23T12:23:35.885Z,19.35
2022-10-23T12:26:45.700Z,19.77
2022-10-23T12:30:15.353Z,21.40
2022-10-23T12:33:49.545Z,16.48
2022-10-23T12:37:22.146Z,15.98
2022-10-23T12:40:29.923Z,15.02
2022-10-23T12:43:36.073Z,16.65
2022-10-23T12:46:46.242Z,13.35
2022-10-23T12:49:50.504Z,13.50
2022-10-23T12:52:55.860Z,14.02
2022-10-23T12:56:05.075Z,18.08
2022-10-23T12:59:16.104Z,13.35
2022-10-23T13:02:23.037Z,14.55
2022-10-23T13:05:25.698Z,16.02
2022-10-23T13:08:42.021Z,12.75
2022-10-23T13:11:46.842Z,11.93
2022-10-23T13:14:59.103Z,12.40
2022-10-23T13:18:03.457Z,11.88
2022-10-23T13:21:15.956Z,12.65
2022-10-23T13:24:23.088Z,11.25
2022-10-23T13:27:32.105Z,12.07
2022-10-23T13:30:40.461Z,11.57
2022-10-23T13:33:47.858Z,12.30
2022-10-23T13:36:54.940Z,13.62
2022-10-23T13:40:02.894Z,13.00
2022-10-23T13:43:14.597Z,13.62
2022-10-23T13:46:20.323Z,12.55
2022-10-23T13:49:22.470Z,14.57
2022-10-23T13:52:25.063Z,15.35
2022-10-23T13:55:28.162Z,13.55
2022-10-23T13:58:30.674Z,15.38
2022-10-23T14:01:35.849Z,16.50
2022-10-23T14:04:38.304Z,13.68
2022-10-23T14:07:40.523Z,15.32
2022-10-23T14:10:43.070Z,16.80
2022-10-23T14:13:45.506Z,15.55
2022-10-23T14:16:47.914Z,13.98
2022-10-23T14:19:50.169Z,15.65
2022-10-23T14:22:52.562Z,17.00
2022-10-23T14:25:54.643Z,16.05
2022-10-23T14:29:00.651Z,13.75
2022-10-23T14:32:06.534Z,15.43
2022-10-23T14:35:09.080Z,15.65
2022-10-23T14:38:11.211Z,15.18
2022-10-23T14:41:15.930Z,14.55
2022-10-23T14:44:18.015Z,17.33
2022-10-23T14:47:20.375Z,15.68
2022-10-23T14:50:22.487Z,16.33
2022-10-23T14:53:24.839Z,16.60
2022-10-23T14:56:28.034Z,16.80
2022-10-23T14:59:30.565Z,16.85
2022-10-23T15:02:32.637Z,15.93
2022-10-23T15:05:34.979Z,16.12
2022-10-23T15:08:37.247Z,16.15
2022-10-23T15:11:39.657Z,17.15
2022-10-23T15:14:41.853Z,18.77
2022-10-23T15:17:44.241Z,16.25
2022-10-23T15:20:52.409Z,16.92
2022-10-23T15:23:54.952Z,18.17
2022-10-23T15:26:57.159Z,18.25
2022-10-23T15:29:59.582Z,19.02
2022-10-23T15:33:01.678Z,17.42
2022-10-23T15:36:04.164Z,15.93
2022-10-23T15:39:08.939Z,18.05
2022-10-23T15:42:11.378Z,20.20
2022-10-23T15:45:13.761Z,17.10
2022-10-23T15:48:16.123Z,16.77
2022-10-23T15:51:18.232Z,16.00
2022-10-23T15:54:21.475Z,15.95
2022-10-23T15:57:23.602Z,15.00
2022-10-23T16:00:25.989Z,15.02
2022-10-23T16:03:28.399Z,15.63
2022-10-23T16:06:30.779Z,16.85
2022-10-23T16:09:33.283Z,15.30
2022-10-23T16:12:35.379Z,16.48
2022-10-23T16:15:38.418Z,15.93
2022-10-23T16:18:41.362Z,17.15
2022-10-23T16:21:43.699Z,17.10
2022-10-23T16:24:45.772Z,16.85
2022-10-23T16:27:48.176Z,16.92
2022-10-23T16:30:50.287Z,15.52
2022-10-23T16:33:53.176Z,14.45
2022-10-23T16:36:55.328Z,16.83
2022-10-23T16:40:00.050Z,15.77
2022-10-23T16:43:08.400Z,14.90
2022-10-23T16:46:17.386Z,16.90
2022-10-23T16:49:19.482Z,15.20
2022-10-23T16:52:21.882Z,12.88
2022-10-23T16:55:24.033Z,13.57
2022-10-23T16:58:27.084Z,14.25
2022-10-23T17:01:31.439Z,13.02
2022-10-23T17:04:33.966Z,14.55
2022-10-23T17:07:37.170Z,11.30
2022-10-23T17:10:39.552Z,12.13
2022-10-23T17:13:48.095Z,10.85
2022-10-23T17:16:52.089Z,11.15
2022-10-23T17:19:54.197Z,9.05
2022-10-23T17:22:56.543Z,9.20
2022-10-23T17:25:59.106Z,8.65
2022-10-23T17:29:03.627Z,7.97
2022-10-23T17:32:05.985Z,7.97
2022-10-23T17:35:08.583Z,7.85
2022-10-23T17:38:11.405Z,7.75
2022-10-23T17:41:15.797Z,7.70
2022-10-23T17:44:18.125Z,7.05
2022-10-23T17:47:20.477Z,6.72
2022-10-23T17:50:22.571Z,6.90
2022-10-23T17:53:24.927Z,9.18
2022-10-23T17:56:29.623Z,7.87
2022-10-23T17:59:32.367Z,7.68
2022-10-23T18:02:34.480Z,6.62
2022-10-23T18:05:36.949Z,7.22
2022-10-23T18:08:40.611Z,9.23
2022-10-23T18:11:48.078Z,7.97
2022-10-23T18:14:50.607Z,6.93
2022-10-23T18:17:52.978Z,8.75
2022-10-23T18:20:57.539Z,6.75
2022-10-23T18:24:00.862Z,8.07
2022-10-23T18:27:02.970Z,6.62
2022-10-23T18:30:06.554Z,8.38
2022-10-23T18:33:08.704Z,8.95
2022-10-23T18:36:23.322Z,9.75
2022-10-23T18:39:25.954Z,7.35
2022-10-23T18:42:28.289Z,8.02
2022-10-23T18:45:31.341Z,7.87
2022-10-23T18:48:34.109Z,8.52
2022-10-23T18:51:37.465Z,7.62
2022-10-23T18:54:39.858Z,8.68
2022-10-23T18:57:42.588Z,8.88
2022-10-23T19:00:45.855Z,8.18
2022-10-23T19:03:48.151Z,9.55
2022-10-23T19:06:51.004Z,9.63
2022-10-23T19:09:53.273Z,9.45
2022-10-23T19:12:55.631Z,9.00
2022-10-23T19:15:57.791Z,9.23
2022-10-23T19:19:04.050Z,9.82
2022-10-23T19:22:08.510Z,10.07
2022-10-23T19:25:15.141Z,9.32
2022-10-23T19:28:17.329Z,8.95
2022-10-23T19:31:19.674Z,9.07
2022-10-23T19:34:24.704Z,9.68
2022-10-23T19:37:27.077Z,9.43
2022-10-23T19:40:29.146Z,9.45
2022-10-23T19:43:31.518Z,10.93
2022-10-23T19:46:36.712Z,11.02
2022-10-23T19:49:39.183Z,12.95
2022-10-23T19:52:41.300Z,12.93
2022-10-23T19:55:43.652Z,11.18
2022-10-23T19:58:45.758Z,13.13
2022-10-23T20:01:49.378Z,12.37
2022-10-23T20:04:52.422Z,13.50
2022-10-23T20:07:55.119Z,12.88
2022-10-23T20:14:05.203Z,13.70
2022-10-23T20:17:07.537Z,14.85
2022-10-23T20:20:09.929Z,13.35
2022-10-23T20:23:12.330Z,13.70
2022-10-23T20:26:17.893Z,14.85
2022-10-23T20:29:21.330Z,13.35
2022-10-23T20:32:23.418Z,13.27
2022-10-23T20:35:25.806Z,16.90
2022-10-23T20:38:27.865Z,15.43
2022-10-23T20:41:33.086Z,15.32
2022-10-23T20:44:35.399Z,15.88
2022-10-23T20:47:37.799Z,13.10
2022-10-23T20:50:39.880Z,14.43
2022-10-23T20:53:43.196Z,15.02
2022-10-23T20:56:45.337Z,14.95
2022-10-23T20:59:47.714Z,14.27
2022-10-23T21:02:51.398Z,13.93
2022-10-23T21:05:54.797Z,15.88
2022-10-23T21:09:05.134Z,12.68
2022-10-23T21:12:08.722Z,15.40
2022-10-23T21:15:11.083Z,15.88
2022-10-23T21:18:27.172Z,15.30
2022-10-23T21:21:38.316Z,16.62
2022-10-23T21:24:41.017Z,14.75
2022-10-23T21:27:43.436Z,13.40
2022-10-23T21:30:45.959Z,15.43
2022-10-23T21:33:49.091Z,15.48
2022-10-23T21:40:14.286Z,13.85
2022-10-23T21:43:16.745Z,14.27
2022-10-23T21:46:19.555Z,16.12
2022-10-23T21:49:21.979Z,14.43
2022-10-23T21:52:24.094Z,15.68
2022-10-23T21:55:30.121Z,15.40
2022-10-23T21:58:32.262Z,12.45
2022-10-23T22:01:35.385Z,13.62
2022-10-23T22:04:38.906Z,13.27
2022-10-23T22:07:41.160Z,14.60
2022-10-23T22:10:43.597Z,12.43
2022-10-23T22:13:46.149Z,13.82
2022-10-23T22:16:48.871Z,13.30
2022-10-23T22:19:50.944Z,12.35
2022-10-23T22:22:53.287Z,14.75
2022-10-23T22:25:55.702Z,12.32
2022-10-23T22:29:01.101Z,14.45
2022-10-23T22:32:03.240Z,14.27
2022-10-23T22:35:06.127Z,15.00
2022-10-23T22:38:08.232Z,13.38
2022-10-23T22:41:11.141Z,13.57
2022-10-23T22:44:14.775Z,12.77
2022-10-23T22:47:17.131Z,11.73
2022-10-23T22:50:19.303Z,13.57
2022-10-23T22:53:21.640Z,13.27
2022-10-23T22:56:26.547Z,14.15
2022-10-23T22:59:28.984Z,15.18
2022-10-23T23:02:31.062Z,14.25
2022-10-23T23:05:34.004Z,13.65
2022-10-23T23:08:37.936Z,15.73
2022-10-23T23:11:51.192Z,13.43
2022-10-23T23:14:54.365Z,16.77
2022-10-23T23:17:56.963Z,18.25
2022-10-23T23:21:04.153Z,15.32
2022-10-23T23:24:06.545Z,17.62
2022-10-23T23:27:08.614Z,14.30
2022-10-23T23:30:11.106Z,15.75
2022-10-23T23:33:14.487Z,15.70
2022-10-23T23:36:20.780Z,15.63
2022-10-23T23:39:23.024Z,16.35
2022-10-23T23:42:25.351Z,14.20
2022-10-23T23:45:27.853Z,16.20
2022-10-23T23:48:30.198Z,16.37
2022-10-23T23:51:32.310Z,19.33
2022-10-23T23:54:34.638Z,18.20
2022-10-23T23:57:36.737Z,18.52
